sensor_id;sensor_type;location;lat;lon;timestamp;temperature;humidity
52879;DHT22;38747;53.140;6.498;2022-10-16T00:01:25;11.90;99.90
52879;DHT22;38747;53.140;6.498;2022-10-16T00:03:51;11.90;99.90
52879;DHT22;38747;53.140;6.498;2022-10-16T00:06:19;11.90;99.90
52879;DHT22;38747;53.140;6.498;2022-10-16T00:08:45;11.90;99.90
52879;DHT22;38747;53.140;6.498;2022-10-16T00:11:17;11.90;99.90
52879;DHT22;38747;53.140;6.498;2022-10-16T00:13:44;11.90;99.90
52879;DHT22;38747;53.140;6.498;2022-10-16T00:16:11;11.90;99.90
52879;DHT22;38747;53.140;6.498;2022-10-16T00:18:37;11.90;99.90
52879;DHT22;38747;53.140;6.498;2022-10-16T00:21:09;11.90;99.90
52879;DHT22;38747;53.140;6.498;2022-10-16T00:23:36;11.90;99.90
52879;DHT22;38747;53.140;6.498;2022-10-16T00:26:04;11.90;99.90
52879;DHT22;38747;53.140;6.498;2022-10-16T00:28:30;11.90;99.90
52879;DHT22;38747;53.140;6.498;2022-10-16T00:30:56;12.00;99.90
52879;DHT22;38747;53.140;6.498;2022-10-16T00:33:22;12.00;99.90
52879;DHT22;38747;53.140;6.498;2022-10-16T00:35:47;11.90;99.90
52879;DHT22;38747;53.140;6.498;2022-10-16T00:38:14;11.90;99.90
52879;DHT22;38747;53.140;6.498;2022-10-16T00:40:40;12.00;99.90
52879;DHT22;38747;53.140;6.498;2022-10-16T00:45:58;12.10;99.90
52879;DHT22;38747;53.140;6.498;2022-10-16T00:48:24;12.00;99.90
52879;DHT22;38747;53.140;6.498;2022-10-16T00:50:50;12.00;99.90
52879;DHT22;38747;53.140;6.498;2022-10-16T00:53:16;12.10;99.90
52879;DHT22;38747;53.140;6.498;2022-10-16T00:55:42;12.10;99.90
52879;DHT22;38747;53.140;6.498;2022-10-16T00:58:08;12.00;99.90
52879;DHT22;38747;53.140;6.498;2022-10-16T01:00:34;12.00;99.90
52879;DHT22;38747;53.140;6.498;2022-10-16T01:03:01;12.00;99.90
52879;DHT22;38747;53.140;6.498;2022-10-16T01:05:35;12.00;99.90
52879;DHT22;38747;53.140;6.498;2022-10-16T01:08:18;12.00;99.90
52879;DHT22;38747;53.140;6.498;2022-10-16T01:10:59;12.00;99.90
52879;DHT22;38747;53.140;6.498;2022-10-16T01:13:42;12.00;99.90
52879;DHT22;38747;53.140;6.498;2022-10-16T01:16:16;12.00;99.90
52879;DHT22;38747;53.140;6.498;2022-10-16T01:19:30;12.10;99.90
52879;DHT22;38747;53.140;6.498;2022-10-16T01:21:37;12.00;99.90
52879;DHT22;38747;53.140;6.498;2022-10-16T01:29:49;12.10;99.90
52879;DHT22;38747;53.140;6.498;2022-10-16T01:32:40;12.10;99.90
52879;DHT22;38747;53.140;6.498;2022-10-16T01:35:16;12.00;99.90
52879;DHT22;38747;53.140;6.498;2022-10-16T01:38:03;12.10;99.90
52879;DHT22;38747;53.140;6.498;2022-10-16T01:40:32;12.10;99.90
52879;DHT22;38747;53.140;6.498;2022-10-16T01:43:05;12.10;99.90
52879;DHT22;38747;53.140;6.498;2022-10-16T01:45:32;12.10;99.90
52879;DHT22;38747;53.140;6.498;2022-10-16T01:48:00;12.00;99.90
52879;DHT22;38747;53.140;6.498;2022-10-16T01:50:32;12.10;99.90
52879;DHT22;38747;53.140;6.498;2022-10-16T01:52:58;12.10;99.90
52879;DHT22;38747;53.140;6.498;2022-10-16T01:55:29;12.10;99.90
52879;DHT22;38747;53.140;6.498;2022-10-16T01:57:57;12.10;99.90
52879;DHT22;38747;53.140;6.498;2022-10-16T02:00:26;12.10;99.90
52879;DHT22;38747;53.140;6.498;2022-10-16T02:02:53;12.10;99.90
52879;DHT22;38747;53.140;6.498;2022-10-16T02:08:07;12.10;99.90
52879;DHT22;38747;53.140;6.498;2022-10-16T02:10:34;12.10;99.90
52879;DHT22;38747;53.140;6.498;2022-10-16T02:15:31;12.20;99.90
52879;DHT22;38747;53.140;6.498;2022-10-16T02:17:57;12.20;99.90
52879;DHT22;38747;53.140;6.498;2022-10-16T02:20:27;12.10;99.90
52879;DHT22;38747;53.140;6.498;2022-10-16T02:22:54;12.20;99.90
52879;DHT22;38747;53.140;6.498;2022-10-16T02:25:29;12.30;99.90
52879;DHT22;38747;53.140;6.498;2022-10-16T02:28:19;12.30;99.90
52879;DHT22;38747;53.140;6.498;2022-10-16T02:30:56;12.30;99.90
52879;DHT22;38747;53.140;6.498;2022-10-16T02:33:23;12.30;99.90
52879;DHT22;38747;53.140;6.498;2022-10-16T02:35:51;12.40;99.90
52879;DHT22;38747;53.140;6.498;2022-10-16T02:38:17;12.40;99.90
52879;DHT22;38747;53.140;6.498;2022-10-16T02:40:44;12.40;99.90
52879;DHT22;38747;53.140;6.498;2022-10-16T02:43:10;12.40;99.90
52879;DHT22;38747;53.140;6.498;2022-10-16T02:45:36;12.40;99.90
52879;DHT22;38747;53.140;6.498;2022-10-16T02:48:02;12.40;99.90
52879;DHT22;38747;53.140;6.498;2022-10-16T02:50:27;12.40;99.90
52879;DHT22;38747;53.140;6.498;2022-10-16T02:52:53;12.40;99.90
52879;DHT22;38747;53.140;6.498;2022-10-16T02:55:18;12.50;99.90
52879;DHT22;38747;53.140;6.498;2022-10-16T02:57:44;12.50;99.90
52879;DHT22;38747;53.140;6.498;2022-10-16T03:00:12;12.50;99.90
52879;DHT22;38747;53.140;6.498;2022-10-16T03:02:38;12.50;99.90
52879;DHT22;38747;53.140;6.498;2022-10-16T03:05:04;12.50;99.90
52879;DHT22;38747;53.140;6.498;2022-10-16T03:07:30;12.50;99.90
52879;DHT22;38747;53.140;6.498;2022-10-16T03:09:55;12.50;99.90
52879;DHT22;38747;53.140;6.498;2022-10-16T03:12:21;12.50;99.90
52879;DHT22;38747;53.140;6.498;2022-10-16T03:14:47;12.50;99.90
52879;DHT22;38747;53.140;6.498;2022-10-16T03:17:13;12.50;99.90
52879;DHT22;38747;53.140;6.498;2022-10-16T03:19:39;12.50;99.90
52879;DHT22;38747;53.140;6.498;2022-10-16T03:22:05;12.50;99.90
52879;DHT22;38747;53.140;6.498;2022-10-16T03:24:30;12.50;99.90
52879;DHT22;38747;53.140;6.498;2022-10-16T03:26:56;12.50;99.90
52879;DHT22;38747;53.140;6.498;2022-10-16T03:29:22;12.50;99.90
52879;DHT22;38747;53.140;6.498;2022-10-16T03:31:47;12.50;99.90
52879;DHT22;38747;53.140;6.498;2022-10-16T03:34:15;12.50;99.90
52879;DHT22;38747;53.140;6.498;2022-10-16T03:36:40;12.40;99.90
52879;DHT22;38747;53.140;6.498;2022-10-16T03:39:06;12.40;99.90
52879;DHT22;38747;53.140;6.498;2022-10-16T03:41:32;12.40;99.90
52879;DHT22;38747;53.140;6.498;2022-10-16T03:43:57;12.40;99.90
52879;DHT22;38747;53.140;6.498;2022-10-16T03:46:23;12.40;99.90
52879;DHT22;38747;53.140;6.498;2022-10-16T03:48:48;12.40;99.90
52879;DHT22;38747;53.140;6.498;2022-10-16T03:51:14;12.30;99.90
52879;DHT22;38747;53.140;6.498;2022-10-16T03:53:40;12.40;99.90
52879;DHT22;38747;53.140;6.498;2022-10-16T03:56:05;12.30;99.90
52879;DHT22;38747;53.140;6.498;2022-10-16T03:58:31;12.40;99.90
52879;DHT22;38747;53.140;6.498;2022-10-16T04:00:57;12.30;99.90
52879;DHT22;38747;53.140;6.498;2022-10-16T04:03:22;12.30;99.90
52879;DHT22;38747;53.140;6.498;2022-10-16T04:05:48;12.30;99.90
52879;DHT22;38747;53.140;6.498;2022-10-16T04:08:14;12.20;99.90
52879;DHT22;38747;53.140;6.498;2022-10-16T04:10:42;12.20;99.90
52879;DHT22;38747;53.140;6.498;2022-10-16T04:13:08;12.20;99.90
52879;DHT22;38747;53.140;6.498;2022-10-16T04:15:34;12.20;99.90
52879;DHT22;38747;53.140;6.498;2022-10-16T04:18:00;12.10;99.90
52879;DHT22;38747;53.140;6.498;2022-10-16T04:20:26;12.10;99.90
52879;DHT22;38747;53.140;6.498;2022-10-16T04:22:51;12.10;99.90
52879;DHT22;38747;53.140;6.498;2022-10-16T04:25:17;12.10;99.90
52879;DHT22;38747;53.140;6.498;2022-10-16T04:27:42;12.00;99.90
52879;DHT22;38747;53.140;6.498;2022-10-16T04:30:08;12.00;99.90
52879;DHT22;38747;53.140;6.498;2022-10-16T04:32:34;12.00;99.90
52879;DHT22;38747;53.140;6.498;2022-10-16T04:35:00;12.00;99.90
52879;DHT22;38747;53.140;6.498;2022-10-16T04:37:26;12.00;99.90
52879;DHT22;38747;53.140;6.498;2022-10-16T04:39:52;12.00;99.90
52879;DHT22;38747;53.140;6.498;2022-10-16T04:42:19;12.00;99.90
52879;DHT22;38747;53.140;6.498;2022-10-16T04:44:45;12.00;99.90
52879;DHT22;38747;53.140;6.498;2022-10-16T04:47:10;12.10;99.90
52879;DHT22;38747;53.140;6.498;2022-10-16T04:49:36;12.10;99.90
52879;DHT22;38747;53.140;6.498;2022-10-16T04:52:02;12.10;99.90
52879;DHT22;38747;53.140;6.498;2022-10-16T04:54:28;12.20;99.90
52879;DHT22;38747;53.140;6.498;2022-10-16T04:56:53;12.20;99.90
52879;DHT22;38747;53.140;6.498;2022-10-16T04:59:20;12.30;99.90
52879;DHT22;38747;53.140;6.498;2022-10-16T05:01:46;12.20;99.90
52879;DHT22;38747;53.140;6.498;2022-10-16T05:04:12;12.20;99.90
52879;DHT22;38747;53.140;6.498;2022-10-16T05:06:38;12.20;99.90
52879;DHT22;38747;53.140;6.498;2022-10-16T05:09:05;12.20;99.90
52879;DHT22;38747;53.140;6.498;2022-10-16T05:11:30;12.20;99.90
52879;DHT22;38747;53.140;6.498;2022-10-16T05:13:56;12.20;99.90
52879;DHT22;38747;53.140;6.498;2022-10-16T05:16:22;12.20;99.90
52879;DHT22;38747;53.140;6.498;2022-10-16T05:18:47;12.20;99.90
52879;DHT22;38747;53.140;6.498;2022-10-16T05:21:13;12.10;99.90
52879;DHT22;38747;53.140;6.498;2022-10-16T05:23:39;12.10;99.90
52879;DHT22;38747;53.140;6.498;2022-10-16T05:26:04;12.10;99.90
52879;DHT22;38747;53.140;6.498;2022-10-16T05:28:30;12.00;99.90
52879;DHT22;38747;53.140;6.498;2022-10-16T05:30:56;12.00;99.90
52879;DHT22;38747;53.140;6.498;2022-10-16T05:33:23;12.10;99.90
52879;DHT22;38747;53.140;6.498;2022-10-16T05:35:49;12.00;99.90
52879;DHT22;38747;53.140;6.498;2022-10-16T05:38:16;12.10;99.90
52879;DHT22;38747;53.140;6.498;2022-10-16T05:40:42;12.10;99.90
52879;DHT22;38747;53.140;6.498;2022-10-16T05:43:07;12.10;99.90
52879;DHT22;38747;53.140;6.498;2022-10-16T05:45:33;12.10;99.90
52879;DHT22;38747;53.140;6.498;2022-10-16T05:47:59;12.10;99.90
52879;DHT22;38747;53.140;6.498;2022-10-16T05:50:26;12.10;99.90
52879;DHT22;38747;53.140;6.498;2022-10-16T05:52:51;12.10;99.90
52879;DHT22;38747;53.140;6.498;2022-10-16T05:55:17;12.10;99.90
52879;DHT22;38747;53.140;6.498;2022-10-16T05:57:43;12.10;99.90
52879;DHT22;38747;53.140;6.498;2022-10-16T06:00:09;12.20;99.90
52879;DHT22;38747;53.140;6.498;2022-10-16T06:02:35;12.10;99.90
52879;DHT22;38747;53.140;6.498;2022-10-16T06:05:01;12.10;99.90
52879;DHT22;38747;53.140;6.498;2022-10-16T06:07:26;12.20;99.90
52879;DHT22;38747;53.140;6.498;2022-10-16T06:09:52;12.20;99.90
52879;DHT22;38747;53.140;6.498;2022-10-16T06:12:18;12.20;99.90
52879;DHT22;38747;53.140;6.498;2022-10-16T06:14:45;12.10;99.90
52879;DHT22;38747;53.140;6.498;2022-10-16T06:17:13;12.20;99.90
52879;DHT22;38747;53.140;6.498;2022-10-16T06:19:39;12.20;99.90
52879;DHT22;38747;53.140;6.498;2022-10-16T06:22:05;12.20;99.90
52879;DHT22;38747;53.140;6.498;2022-10-16T06:24:30;12.20;99.90
52879;DHT22;38747;53.140;6.498;2022-10-16T06:26:56;12.30;99.90
52879;DHT22;38747;53.140;6.498;2022-10-16T06:29:21;12.30;99.90
52879;DHT22;38747;53.140;6.498;2022-10-16T06:31:47;12.30;99.90
52879;DHT22;38747;53.140;6.498;2022-10-16T06:34:12;12.30;99.90
52879;DHT22;38747;53.140;6.498;2022-10-16T06:36:39;12.40;99.90
52879;DHT22;38747;53.140;6.498;2022-10-16T06:39:05;12.40;99.90
52879;DHT22;38747;53.140;6.498;2022-10-16T06:41:33;12.40;99.90
52879;DHT22;38747;53.140;6.498;2022-10-16T06:43:59;12.50;99.90
52879;DHT22;38747;53.140;6.498;2022-10-16T06:46:25;12.50;99.90
52879;DHT22;38747;53.140;6.498;2022-10-16T06:48:52;12.50;99.90
52879;DHT22;38747;53.140;6.498;2022-10-16T06:51:19;12.50;99.90
52879;DHT22;38747;53.140;6.498;2022-10-16T06:53:48;12.60;99.90
52879;DHT22;38747;53.140;6.498;2022-10-16T06:56:23;12.60;99.90
52879;DHT22;38747;53.140;6.498;2022-10-16T06:58:49;12.60;99.90
52879;DHT22;38747;53.140;6.498;2022-10-16T07:01:16;12.60;99.90
52879;DHT22;38747;53.140;6.498;2022-10-16T07:03:43;12.60;99.90
52879;DHT22;38747;53.140;6.498;2022-10-16T07:06:11;12.60;99.90
52879;DHT22;38747;53.140;6.498;2022-10-16T07:08:38;12.60;99.90
52879;DHT22;38747;53.140;6.498;2022-10-16T07:11:07;12.60;99.90
52879;DHT22;38747;53.140;6.498;2022-10-16T07:13:37;12.60;99.90
52879;DHT22;38747;53.140;6.498;2022-10-16T07:18:32;12.60;99.90
52879;DHT22;38747;53.140;6.498;2022-10-16T07:21:09;12.70;99.90
52879;DHT22;38747;53.140;6.498;2022-10-16T07:23:36;12.70;99.90
52879;DHT22;38747;53.140;6.498;2022-10-16T07:26:01;12.60;99.90
52879;DHT22;38747;53.140;6.498;2022-10-16T07:28:28;12.70;99.90
52879;DHT22;38747;53.140;6.498;2022-10-16T07:30:55;12.60;99.90
52879;DHT22;38747;53.140;6.498;2022-10-16T07:33:21;12.70;99.90
52879;DHT22;38747;53.140;6.498;2022-10-16T07:35:53;12.70;99.90
52879;DHT22;38747;53.140;6.498;2022-10-16T07:38:19;12.70;99.90
52879;DHT22;38747;53.140;6.498;2022-10-16T07:40:45;12.60;99.90
52879;DHT22;38747;53.140;6.498;2022-10-16T07:43:11;12.60;99.90
52879;DHT22;38747;53.140;6.498;2022-10-16T07:45:37;12.70;99.90
52879;DHT22;38747;53.140;6.498;2022-10-16T07:48:03;12.70;99.90
52879;DHT22;38747;53.140;6.498;2022-10-16T07:50:28;12.70;99.90
52879;DHT22;38747;53.140;6.498;2022-10-16T07:52:54;12.80;99.90
52879;DHT22;38747;53.140;6.498;2022-10-16T07:55:19;12.80;99.90
52879;DHT22;38747;53.140;6.498;2022-10-16T07:57:45;12.80;99.90
52879;DHT22;38747;53.140;6.498;2022-10-16T08:00:11;12.90;99.90
52879;DHT22;38747;53.140;6.498;2022-10-16T08:02:39;13.00;99.90
52879;DHT22;38747;53.140;6.498;2022-10-16T08:05:06;13.10;99.90
52879;DHT22;38747;53.140;6.498;2022-10-16T08:07:32;13.10;99.90
52879;DHT22;38747;53.140;6.498;2022-10-16T08:09:58;13.10;99.90
52879;DHT22;38747;53.140;6.498;2022-10-16T08:12:25;13.10;99.90
52879;DHT22;38747;53.140;6.498;2022-10-16T08:14:51;13.10;99.90
52879;DHT22;38747;53.140;6.498;2022-10-16T08:17:16;13.10;99.90
52879;DHT22;38747;53.140;6.498;2022-10-16T08:19:45;13.10;99.90
52879;DHT22;38747;53.140;6.498;2022-10-16T08:22:12;13.10;99.90
52879;DHT22;38747;53.140;6.498;2022-10-16T08:24:37;13.10;99.90
52879;DHT22;38747;53.140;6.498;2022-10-16T08:27:03;13.10;99.90
52879;DHT22;38747;53.140;6.498;2022-10-16T08:29:29;13.10;99.90
52879;DHT22;38747;53.140;6.498;2022-10-16T08:31:55;13.20;99.90
52879;DHT22;38747;53.140;6.498;2022-10-16T08:34:20;13.30;99.90
52879;DHT22;38747;53.140;6.498;2022-10-16T08:36:46;13.40;99.90
52879;DHT22;38747;53.140;6.498;2022-10-16T08:39:11;13.40;99.90
52879;DHT22;38747;53.140;6.498;2022-10-16T08:47:26;13.60;99.90
52879;DHT22;38747;53.140;6.498;2022-10-16T08:50:02;13.60;99.90
52879;DHT22;38747;53.140;6.498;2022-10-16T08:52:35;13.70;99.90
52879;DHT22;38747;53.140;6.498;2022-10-16T08:55:04;13.70;99.90
52879;DHT22;38747;53.140;6.498;2022-10-16T08:57:30;13.80;99.90
52879;DHT22;38747;53.140;6.498;2022-10-16T09:00:12;13.90;99.90
52879;DHT22;38747;53.140;6.498;2022-10-16T09:02:53;14.00;99.90
52879;DHT22;38747;53.140;6.498;2022-10-16T09:08:08;14.20;99.90
52879;DHT22;38747;53.140;6.498;2022-10-16T09:11:03;14.20;99.90
52879;DHT22;38747;53.140;6.498;2022-10-16T09:13:56;14.30;99.90
52879;DHT22;38747;53.140;6.498;2022-10-16T09:16:36;14.30;99.90
52879;DHT22;38747;53.140;6.498;2022-10-16T09:21:47;14.30;99.90
52879;DHT22;38747;53.140;6.498;2022-10-16T09:24:25;14.30;99.90
52879;DHT22;38747;53.140;6.498;2022-10-16T09:26:51;14.40;99.90
52879;DHT22;38747;53.140;6.498;2022-10-16T09:29:18;14.50;99.90
52879;DHT22;38747;53.140;6.498;2022-10-16T09:31:47;14.60;99.90
52879;DHT22;38747;53.140;6.498;2022-10-16T09:34:27;14.70;99.90
52879;DHT22;38747;53.140;6.498;2022-10-16T09:36:56;14.80;99.90
52879;DHT22;38747;53.140;6.498;2022-10-16T09:39:22;14.80;99.90
52879;DHT22;38747;53.140;6.498;2022-10-16T09:41:48;14.80;99.90
52879;DHT22;38747;53.140;6.498;2022-10-16T09:44:24;14.80;99.90
52879;DHT22;38747;53.140;6.498;2022-10-16T09:47:02;14.90;99.90
52879;DHT22;38747;53.140;6.498;2022-10-16T09:49:28;15.00;99.90
52879;DHT22;38747;53.140;6.498;2022-10-16T09:52:05;15.20;99.90
52879;DHT22;38747;53.140;6.498;2022-10-16T09:54:31;15.40;99.90
52879;DHT22;38747;53.140;6.498;2022-10-16T09:57:12;15.50;99.90
52879;DHT22;38747;53.140;6.498;2022-10-16T09:59:47;15.50;99.90
52879;DHT22;38747;53.140;6.498;2022-10-16T10:02:14;15.50;99.90
52879;DHT22;38747;53.140;6.498;2022-10-16T10:04:46;15.50;99.90
52879;DHT22;38747;53.140;6.498;2022-10-16T10:07:19;15.50;99.90
52879;DHT22;38747;53.140;6.498;2022-10-16T10:09:46;15.40;99.90
52879;DHT22;38747;53.140;6.498;2022-10-16T10:12:23;15.30;99.90
52879;DHT22;38747;53.140;6.498;2022-10-16T10:14:55;15.30;99.90
52879;DHT22;38747;53.140;6.498;2022-10-16T10:17:23;15.20;99.90
52879;DHT22;38747;53.140;6.498;2022-10-16T10:19:55;15.20;99.90
52879;DHT22;38747;53.140;6.498;2022-10-16T10:22:32;15.30;99.90
52879;DHT22;38747;53.140;6.498;2022-10-16T10:28:04;15.50;99.90
52879;DHT22;38747;53.140;6.498;2022-10-16T10:30:41;15.50;99.90
52879;DHT22;38747;53.140;6.498;2022-10-16T10:38:50;15.80;99.90
52879;DHT22;38747;53.140;6.498;2022-10-16T10:44:33;15.90;99.90
52879;DHT22;38747;53.140;6.498;2022-10-16T10:47:01;15.90;99.90
52879;DHT22;38747;53.140;6.498;2022-10-16T10:49:37;15.80;99.90
52879;DHT22;38747;53.140;6.498;2022-10-16T10:57:07;16.10;99.90
52879;DHT22;38747;53.140;6.498;2022-10-16T10:59:54;16.20;99.90
52879;DHT22;38747;53.140;6.498;2022-10-16T11:02:40;16.30;99.90
52879;DHT22;38747;53.140;6.498;2022-10-16T11:05:26;16.40;99.90
52879;DHT22;38747;53.140;6.498;2022-10-16T11:08:02;16.50;99.90
52879;DHT22;38747;53.140;6.498;2022-10-16T11:14:00;16.50;99.90
52879;DHT22;38747;53.140;6.498;2022-10-16T11:16:33;16.40;99.90
52879;DHT22;38747;53.140;6.498;2022-10-16T11:21:55;16.30;99.90
52879;DHT22;38747;53.140;6.498;2022-10-16T11:24:46;16.20;99.90
52879;DHT22;38747;53.140;6.498;2022-10-16T11:27:19;16.20;99.90
52879;DHT22;38747;53.140;6.498;2022-10-16T11:30:02;16.20;99.90
52879;DHT22;38747;53.140;6.498;2022-10-16T11:32:33;16.30;99.90
52879;DHT22;38747;53.140;6.498;2022-10-16T11:35:11;16.30;99.90
52879;DHT22;38747;53.140;6.498;2022-10-16T11:37:43;16.20;99.90
52879;DHT22;38747;53.140;6.498;2022-10-16T11:42:46;16.10;99.90
52879;DHT22;38747;53.140;6.498;2022-10-16T11:45:31;16.20;99.90
52879;DHT22;38747;53.140;6.498;2022-10-16T11:49:03;16.30;99.90
52879;DHT22;38747;53.140;6.498;2022-10-16T11:51:18;16.30;99.90
52879;DHT22;38747;53.140;6.498;2022-10-16T11:53:48;16.40;99.90
52879;DHT22;38747;53.140;6.498;2022-10-16T11:56:18;16.50;99.90
52879;DHT22;38747;53.140;6.498;2022-10-16T11:58:56;16.40;99.90
52879;DHT22;38747;53.140;6.498;2022-10-16T12:04:31;16.40;99.90
52879;DHT22;38747;53.140;6.498;2022-10-16T12:07:03;16.50;99.90
52879;DHT22;38747;53.140;6.498;2022-10-16T12:09:33;16.60;99.90
52879;DHT22;38747;53.140;6.498;2022-10-16T12:12:01;16.80;99.90
52879;DHT22;38747;53.140;6.498;2022-10-16T12:17:03;17.00;99.90
52879;DHT22;38747;53.140;6.498;2022-10-16T12:19:31;17.10;99.90
52879;DHT22;38747;53.140;6.498;2022-10-16T12:22:02;17.10;99.90
52879;DHT22;38747;53.140;6.498;2022-10-16T12:24:33;17.10;99.90
52879;DHT22;38747;53.140;6.498;2022-10-16T12:27:00;17.10;99.90
52879;DHT22;38747;53.140;6.498;2022-10-16T12:29:40;17.20;99.90
52879;DHT22;38747;53.140;6.498;2022-10-16T12:32:28;17.30;99.90
52879;DHT22;38747;53.140;6.498;2022-10-16T12:34:54;17.30;99.90
52879;DHT22;38747;53.140;6.498;2022-10-16T12:37:25;17.40;99.90
52879;DHT22;38747;53.140;6.498;2022-10-16T12:39:53;17.40;99.90
52879;DHT22;38747;53.140;6.498;2022-10-16T12:44:49;17.40;99.90
52879;DHT22;38747;53.140;6.498;2022-10-16T12:47:37;17.40;99.90
52879;DHT22;38747;53.140;6.498;2022-10-16T12:50:21;17.10;99.90
52879;DHT22;38747;53.140;6.498;2022-10-16T12:52:48;16.90;99.90
52879;DHT22;38747;53.140;6.498;2022-10-16T12:55:19;16.80;99.90
52879;DHT22;38747;53.140;6.498;2022-10-16T12:58:16;16.60;99.90
52879;DHT22;38747;53.140;6.498;2022-10-16T13:00:57;16.50;99.90
52879;DHT22;38747;53.140;6.498;2022-10-16T13:06:22;16.10;99.90
52879;DHT22;38747;53.140;6.498;2022-10-16T13:09:19;16.00;99.90
52879;DHT22;38747;53.140;6.498;2022-10-16T13:12:44;15.90;99.90
52879;DHT22;38747;53.140;6.498;2022-10-16T13:15:19;15.80;99.90
52879;DHT22;38747;53.140;6.498;2022-10-16T13:21:31;15.70;99.90
52879;DHT22;38747;53.140;6.498;2022-10-16T13:26:16;15.70;99.90
52879;DHT22;38747;53.140;6.498;2022-10-16T13:28:45;15.70;99.90
52879;DHT22;38747;53.140;6.498;2022-10-16T13:31:18;15.70;99.90
52879;DHT22;38747;53.140;6.498;2022-10-16T13:33:51;15.70;99.90
52879;DHT22;38747;53.140;6.498;2022-10-16T13:39:12;15.80;99.90
52879;DHT22;38747;53.140;6.498;2022-10-16T13:41:38;15.90;99.90
52879;DHT22;38747;53.140;6.498;2022-10-16T13:44:07;16.00;99.90
52879;DHT22;38747;53.140;6.498;2022-10-16T13:46:34;16.00;99.90
52879;DHT22;38747;53.140;6.498;2022-10-16T13:49:05;16.10;99.90
52879;DHT22;38747;53.140;6.498;2022-10-16T13:51:32;16.10;99.90
52879;DHT22;38747;53.140;6.498;2022-10-16T13:53:58;16.20;99.90
52879;DHT22;38747;53.140;6.498;2022-10-16T13:56:29;16.20;99.90
52879;DHT22;38747;53.140;6.498;2022-10-16T13:59:04;16.30;99.90
52879;DHT22;38747;53.140;6.498;2022-10-16T14:01:34;16.30;99.90
52879;DHT22;38747;53.140;6.498;2022-10-16T14:04:08;16.30;99.90
52879;DHT22;38747;53.140;6.498;2022-10-16T14:06:36;16.20;99.90
52879;DHT22;38747;53.140;6.498;2022-10-16T14:09:07;16.20;99.90
52879;DHT22;38747;53.140;6.498;2022-10-16T14:11:41;16.20;99.90
52879;DHT22;38747;53.140;6.498;2022-10-16T14:14:11;16.10;99.90
52879;DHT22;38747;53.140;6.498;2022-10-16T14:16:41;16.10;99.90
52879;DHT22;38747;53.140;6.498;2022-10-16T14:19:35;16.10;99.90
52879;DHT22;38747;53.140;6.498;2022-10-16T14:22:01;16.10;99.90
52879;DHT22;38747;53.140;6.498;2022-10-16T14:24:32;16.00;99.90
52879;DHT22;38747;53.140;6.498;2022-10-16T14:26:59;16.00;99.90
52879;DHT22;38747;53.140;6.498;2022-10-16T14:29:27;16.00;99.90
52879;DHT22;38747;53.140;6.498;2022-10-16T14:32:00;15.90;99.90
52879;DHT22;38747;53.140;6.498;2022-10-16T14:34:31;15.70;99.90
52879;DHT22;38747;53.140;6.498;2022-10-16T14:37:06;15.70;99.90
52879;DHT22;38747;53.140;6.498;2022-10-16T14:39:34;15.60;99.90
52879;DHT22;38747;53.140;6.498;2022-10-16T14:42:00;15.50;99.90
52879;DHT22;38747;53.140;6.498;2022-10-16T14:44:30;15.50;99.90
52879;DHT22;38747;53.140;6.498;2022-10-16T14:46:56;15.40;99.90
52879;DHT22;38747;53.140;6.498;2022-10-16T14:49:23;15.40;99.90
52879;DHT22;38747;53.140;6.498;2022-10-16T14:51:49;15.30;99.90
52879;DHT22;38747;53.140;6.498;2022-10-16T14:54:18;15.20;99.90
52879;DHT22;38747;53.140;6.498;2022-10-16T14:56:50;15.10;99.90
52879;DHT22;38747;53.140;6.498;2022-10-16T14:59:27;15.10;99.90
52879;DHT22;38747;53.140;6.498;2022-10-16T15:01:53;15.00;99.90
52879;DHT22;38747;53.140;6.498;2022-10-16T15:04:19;15.00;99.90
52879;DHT22;38747;53.140;6.498;2022-10-16T15:06:44;15.00;99.90
52879;DHT22;38747;53.140;6.498;2022-10-16T15:09:10;14.90;99.90
52879;DHT22;38747;53.140;6.498;2022-10-16T15:11:36;14.90;99.90
52879;DHT22;38747;53.140;6.498;2022-10-16T15:14:02;14.90;99.90
52879;DHT22;38747;53.140;6.498;2022-10-16T15:16:29;14.80;99.90
52879;DHT22;38747;53.140;6.498;2022-10-16T15:18:55;14.80;99.90
52879;DHT22;38747;53.140;6.498;2022-10-16T15:21:25;14.80;99.90
52879;DHT22;38747;53.140;6.498;2022-10-16T15:23:51;14.80;99.90
52879;DHT22;38747;53.140;6.498;2022-10-16T15:26:17;14.80;99.90
52879;DHT22;38747;53.140;6.498;2022-10-16T15:28:43;14.70;99.90
52879;DHT22;38747;53.140;6.498;2022-10-16T15:31:09;14.70;99.90
52879;DHT22;38747;53.140;6.498;2022-10-16T15:33:34;14.70;99.90
52879;DHT22;38747;53.140;6.498;2022-10-16T15:36:01;14.70;99.90
52879;DHT22;38747;53.140;6.498;2022-10-16T15:38:28;14.60;99.90
52879;DHT22;38747;53.140;6.498;2022-10-16T15:40:54;14.50;99.90
52879;DHT22;38747;53.140;6.498;2022-10-16T15:43:20;14.50;99.90
52879;DHT22;38747;53.140;6.498;2022-10-16T15:46:00;14.40;99.90
52879;DHT22;38747;53.140;6.498;2022-10-16T15:48:27;14.40;99.90
52879;DHT22;38747;53.140;6.498;2022-10-16T15:50:53;14.30;99.90
52879;DHT22;38747;53.140;6.498;2022-10-16T15:53:18;14.30;99.90
52879;DHT22;38747;53.140;6.498;2022-10-16T15:55:44;14.30;99.90
52879;DHT22;38747;53.140;6.498;2022-10-16T15:58:09;14.20;99.90
52879;DHT22;38747;53.140;6.498;2022-10-16T16:00:35;14.10;99.90
52879;DHT22;38747;53.140;6.498;2022-10-16T16:03:01;14.10;99.90
52879;DHT22;38747;53.140;6.498;2022-10-16T16:05:27;14.00;99.90
52879;DHT22;38747;53.140;6.498;2022-10-16T16:07:53;14.00;99.90
52879;DHT22;38747;53.140;6.498;2022-10-16T16:10:19;13.90;99.90
52879;DHT22;38747;53.140;6.498;2022-10-16T16:12:47;13.90;99.90
52879;DHT22;38747;53.140;6.498;2022-10-16T16:15:17;13.80;99.90
52879;DHT22;38747;53.140;6.498;2022-10-16T16:17:43;13.70;99.90
52879;DHT22;38747;53.140;6.498;2022-10-16T16:20:10;13.60;99.90
52879;DHT22;38747;53.140;6.498;2022-10-16T16:22:36;13.50;99.90
52879;DHT22;38747;53.140;6.498;2022-10-16T16:25:02;13.50;99.90
52879;DHT22;38747;53.140;6.498;2022-10-16T16:27:27;13.40;99.90
52879;DHT22;38747;53.140;6.498;2022-10-16T16:29:55;13.30;99.90
52879;DHT22;38747;53.140;6.498;2022-10-16T16:32:21;13.30;99.90
52879;DHT22;38747;53.140;6.498;2022-10-16T16:34:47;13.20;99.90
52879;DHT22;38747;53.140;6.498;2022-10-16T16:37:12;13.10;99.90
52879;DHT22;38747;53.140;6.498;2022-10-16T16:39:38;13.10;99.90
52879;DHT22;38747;53.140;6.498;2022-10-16T16:42:04;13.00;99.90
52879;DHT22;38747;53.140;6.498;2022-10-16T16:44:31;13.00;99.90
52879;DHT22;38747;53.140;6.498;2022-10-16T16:46:57;12.90;99.90
52879;DHT22;38747;53.140;6.498;2022-10-16T16:49:23;12.90;99.90
52879;DHT22;38747;53.140;6.498;2022-10-16T16:51:48;12.80;99.90
52879;DHT22;38747;53.140;6.498;2022-10-16T16:54:14;12.80;99.90
52879;DHT22;38747;53.140;6.498;2022-10-16T16:56:40;12.70;99.90